This is the latest recevied weather packets stored in our database for station/object KB1RMA-13. If no packets are shown the sender has not sent any weather packets the latest 1 day(s).
| Time | Temp. | Humidity | Pressure | Rain* | Wind** | Luminosity | Snow |
|---|---|---|---|---|---|---|---|
| 1777987031 | 20° C | 58% | 1009.1 hPa | 0 mm | 9.39 m/s, 196° | 560 W/m² | - |
| 1777986729 | 19.44° C | 59% | 1009.1 hPa | 0 mm | 4.92 m/s, 225° | 527 W/m² | - |
| 1777986426 | 19.44° C | 59% | 1009.1 hPa | 0 mm | 4.02 m/s, 251° | 106 W/m² | - |
| 1777986125 | 19.44° C | 59% | 1009 hPa | 0 mm | 4.47 m/s, 239° | 109 W/m² | - |
| 1777985821 | 18.89° C | 59% | 1009.1 hPa | 0 mm | 7.6 m/s, 227° | 473 W/m² | - |
| 1777985518 | 18.89° C | 61% | 1009.3 hPa | 0 mm | 3.58 m/s, 220° | 517 W/m² | - |
| 1777985215 | 18.33° C | 61% | 1009.7 hPa | 0 mm | 2.24 m/s, 223° | 242 W/m² | - |
| 1777984911 | 18.33° C | 61% | 1009.3 hPa | 0 mm | 4.47 m/s, 225° | 483 W/m² | - |
| 1777984607 | 17.78° C | 62% | 1009.4 hPa | 0 mm | 5.81 m/s, 226° | 461 W/m² | - |
| 1777984304 | 18.33° C | 62% | 1009.4 hPa | 0 mm | 3.58 m/s, 225° | 127 W/m² | - |
| 1777984000 | 18.33° C | 62% | 1009.4 hPa | 0 mm | 4.92 m/s, 240° | 177 W/m² | - |
| 1777983698 | 18.33° C | 61% | 1009.3 hPa | 0 mm | 4.02 m/s, 238° | 151 W/m² | - |
| 1777983394 | 17.78° C | 62% | 1009.3 hPa | 0 mm | 2.68 m/s, 222° | 144 W/m² | - |
| 1777983091 | 17.78° C | 63% | 1009 hPa | 0 mm | 5.36 m/s, 244° | 392 W/m² | - |
| 1777982787 | 17.78° C | 63% | 1009.1 hPa | 0 mm | 3.13 m/s, 231° | 104 W/m² | - |
| 1777982483 | 17.22° C | 64% | 1009.2 hPa | 0 mm | 4.92 m/s, 210° | 309 W/m² | - |
| 1777982178 | 16.67° C | 65% | 1009.2 hPa | 0 mm | 6.71 m/s, 207° | 295 W/m² | - |
| 1777981875 | 16.67° C | 65% | 1009.2 hPa | 0 mm | 5.81 m/s, 219° | 275 W/m² | - |
| 1777981572 | 16.67° C | 66% | 1009.2 hPa | 0 mm | 4.02 m/s, 201° | 271 W/m² | - |
| 1777981269 | 16.11° C | 67% | 1009.2 hPa | 0 mm | 5.81 m/s, 201° | 247 W/m² | - |
| 1777980965 | 16.11° C | 67% | 1009.2 hPa | 0 mm | 1.34 m/s, 223° | 224 W/m² | - |
| 1777980662 | 15.56° C | 68% | 1009.2 hPa | 0 mm | 2.68 m/s, 216° | 207 W/m² | - |
| 1777980358 | 15.56° C | 69% | 1009.3 hPa | 0 mm | 3.13 m/s, 221° | 199 W/m² | - |
| 1777980057 | 15.56° C | 68% | 1009.4 hPa | 0 mm | 3.13 m/s, 238° | 182 W/m² | - |
| 1777979756 | 15° C | 70% | 1009.2 hPa | 0 mm | 0.89 m/s, 170° | 158 W/m² | - |
* Rain latest hour (hover to see other rain measurements)
** Current wind speed in m/s (hover to see current wind gust speed)